Spaulding, Illinois
Current Conditions -  °F | °C
As of 11:52 AM on Thursday 27 Nov 2014 (Local Time) from KSPI Reporting Station
Unknown Precip Unknown Precip  
Wind Chill: 14°   Ceiling: 1600
Heat Index: 26°   Visibility: 9mi
Dew Point: 20°   Wind: 16mph
Humidity: 78%   Direction: 300°WNW
Pressure: 30.44"   Gusts: NA
Location:  39.8576°N, 89.5214°W
Report Text: KSPI 271752Z 30014KT 9SM UP OVC016 M03/M07 A3044 RMK AO2 UPB45SNE43 SLP317 P0000 60000 T10331067 11022 21033 50005
Loading
Personal Weather Stations






























Interactive Weather Map New forecast layout! Learn more

10-Day Weather Forecast

Advertisements
Track Severe Weather on mobile